sensor_id;sensor_type;location;lat;lon;timestamp;P1;durP1;ratioP1;P2;durP2;ratioP2
4642;SDS011;2334;48.710;9.622;2023-02-19T00:01:00;3.37;;;2.93;;
4642;SDS011;2334;48.710;9.622;2023-02-19T00:03:31;6.00;;;3.37;;
4642;SDS011;2334;48.710;9.622;2023-02-19T00:06:00;4.97;;;3.70;;
4642;SDS011;2334;48.710;9.622;2023-02-19T00:08:28;3.80;;;3.23;;
4642;SDS011;2334;48.710;9.622;2023-02-19T00:10:58;4.47;;;3.10;;
4642;SDS011;2334;48.710;9.622;2023-02-19T00:13:26;3.13;;;2.83;;
4642;SDS011;2334;48.710;9.622;2023-02-19T00:15:54;6.97;;;3.87;;
4642;SDS011;2334;48.710;9.622;2023-02-19T00:18:21;4.13;;;3.40;;
4642;SDS011;2334;48.710;9.622;2023-02-19T00:20:48;2.80;;;2.57;;
4642;SDS011;2334;48.710;9.622;2023-02-19T00:23:15;8.63;;;3.60;;
4642;SDS011;2334;48.710;9.622;2023-02-19T00:25:42;6.53;;;4.20;;
4642;SDS011;2334;48.710;9.622;2023-02-19T00:28:09;6.67;;;3.77;;
4642;SDS011;2334;48.710;9.622;2023-02-19T00:30:36;4.73;;;4.00;;
4642;SDS011;2334;48.710;9.622;2023-02-19T00:33:04;10.63;;;4.83;;
4642;SDS011;2334;48.710;9.622;2023-02-19T00:35:32;7.87;;;4.50;;
4642;SDS011;2334;48.710;9.622;2023-02-19T00:37:59;4.93;;;3.83;;
4642;SDS011;2334;48.710;9.622;2023-02-19T00:40:26;3.80;;;3.40;;
4642;SDS011;2334;48.710;9.622;2023-02-19T00:42:53;4.33;;;3.70;;
4642;SDS011;2334;48.710;9.622;2023-02-19T00:45:20;5.17;;;3.70;;
4642;SDS011;2334;48.710;9.622;2023-02-19T00:47:47;3.60;;;3.30;;
4642;SDS011;2334;48.710;9.622;2023-02-19T00:50:15;4.33;;;3.93;;
4642;SDS011;2334;48.710;9.622;2023-02-19T00:52:42;3.27;;;2.97;;
4642;SDS011;2334;48.710;9.622;2023-02-19T00:55:09;6.03;;;2.80;;
4642;SDS011;2334;48.710;9.622;2023-02-19T00:57:36;4.13;;;3.13;;
4642;SDS011;2334;48.710;9.622;2023-02-19T01:00:03;4.73;;;3.50;;
4642;SDS011;2334;48.710;9.622;2023-02-19T01:02:31;4.13;;;3.40;;
4642;SDS011;2334;48.710;9.622;2023-02-19T01:04:58;6.90;;;3.87;;
4642;SDS011;2334;48.710;9.622;2023-02-19T01:07:26;5.60;;;4.60;;
4642;SDS011;2334;48.710;9.622;2023-02-19T01:09:53;7.23;;;4.03;;
4642;SDS011;2334;48.710;9.622;2023-02-19T01:12:20;3.90;;;3.50;;
4642;SDS011;2334;48.710;9.622;2023-02-19T01:14:48;4.30;;;3.90;;
4642;SDS011;2334;48.710;9.622;2023-02-19T01:17:15;4.50;;;4.03;;
4642;SDS011;2334;48.710;9.622;2023-02-19T01:19:42;6.10;;;4.17;;
4642;SDS011;2334;48.710;9.622;2023-02-19T01:22:08;4.50;;;3.53;;
4642;SDS011;2334;48.710;9.622;2023-02-19T01:24:37;7.30;;;4.27;;
4642;SDS011;2334;48.710;9.622;2023-02-19T01:27:04;8.20;;;4.80;;
4642;SDS011;2334;48.710;9.622;2023-02-19T01:29:30;6.37;;;4.43;;
4642;SDS011;2334;48.710;9.622;2023-02-19T01:31:57;5.57;;;4.83;;
4642;SDS011;2334;48.710;9.622;2023-02-19T01:34:24;8.93;;;4.90;;
4642;SDS011;2334;48.710;9.622;2023-02-19T01:36:54;5.30;;;4.47;;
4642;SDS011;2334;48.710;9.622;2023-02-19T01:39:21;7.40;;;4.90;;
4642;SDS011;2334;48.710;9.622;2023-02-19T01:41:49;6.70;;;4.60;;
4642;SDS011;2334;48.710;9.622;2023-02-19T01:47:21;5.73;;;4.40;;
4642;SDS011;2334;48.710;9.622;2023-02-19T01:49:48;6.90;;;4.47;;
4642;SDS011;2334;48.710;9.622;2023-02-19T01:52:20;6.23;;;3.90;;
4642;SDS011;2334;48.710;9.622;2023-02-19T01:54:49;3.17;;;2.87;;
4642;SDS011;2334;48.710;9.622;2023-02-19T01:57:19;2.80;;;2.23;;
4642;SDS011;2334;48.710;9.622;2023-02-19T01:59:49;3.17;;;2.67;;
4642;SDS011;2334;48.710;9.622;2023-02-19T02:02:20;2.60;;;2.10;;
4642;SDS011;2334;48.710;9.622;2023-02-19T02:04:49;1.80;;;1.67;;
4642;SDS011;2334;48.710;9.622;2023-02-19T02:07:16;3.60;;;1.77;;
4642;SDS011;2334;48.710;9.622;2023-02-19T02:10:01;1.90;;;1.80;;
4642;SDS011;2334;48.710;9.622;2023-02-19T02:12:48;2.40;;;2.20;;
4642;SDS011;2334;48.710;9.622;2023-02-19T02:15:16;4.00;;;1.90;;
4642;SDS011;2334;48.710;9.622;2023-02-19T02:17:48;2.63;;;2.00;;
4642;SDS011;2334;48.710;9.622;2023-02-19T02:20:25;2.93;;;1.80;;
4642;SDS011;2334;48.710;9.622;2023-02-19T02:22:58;8.77;;;1.97;;
4642;SDS011;2334;48.710;9.622;2023-02-19T02:25:46;1.90;;;1.37;;
4642;SDS011;2334;48.710;9.622;2023-02-19T02:28:39;1.30;;;1.20;;
4642;SDS011;2334;48.710;9.622;2023-02-19T02:31:31;1.80;;;1.47;;
4642;SDS011;2334;48.710;9.622;2023-02-19T02:34:02;2.03;;;1.33;;
4642;SDS011;2334;48.710;9.622;2023-02-19T02:36:32;1.70;;;1.60;;
4642;SDS011;2334;48.710;9.622;2023-02-19T02:39:02;2.47;;;1.70;;
4642;SDS011;2334;48.710;9.622;2023-02-19T02:41:32;2.10;;;1.50;;
4642;SDS011;2334;48.710;9.622;2023-02-19T02:43:59;1.57;;;1.30;;
4642;SDS011;2334;48.710;9.622;2023-02-19T02:46:27;2.27;;;1.53;;
4642;SDS011;2334;48.710;9.622;2023-02-19T02:49:00;2.43;;;1.60;;
4642;SDS011;2334;48.710;9.622;2023-02-19T02:51:30;1.90;;;1.80;;
4642;SDS011;2334;48.710;9.622;2023-02-19T02:54:02;2.80;;;1.57;;
4642;SDS011;2334;48.710;9.622;2023-02-19T02:56:50;1.67;;;1.43;;
4642;SDS011;2334;48.710;9.622;2023-02-19T02:59:18;1.80;;;1.70;;
4642;SDS011;2334;48.710;9.622;2023-02-19T03:01:51;2.33;;;2.00;;
4642;SDS011;2334;48.710;9.622;2023-02-19T03:04:40;2.40;;;2.20;;
4642;SDS011;2334;48.710;9.622;2023-02-19T03:07:33;6.00;;;2.03;;
4642;SDS011;2334;48.710;9.622;2023-02-19T03:10:04;2.17;;;2.00;;
4642;SDS011;2334;48.710;9.622;2023-02-19T03:12:36;3.10;;;2.07;;
4642;SDS011;2334;48.710;9.622;2023-02-19T03:15:22;4.60;;;2.00;;
4642;SDS011;2334;48.710;9.622;2023-02-19T03:18:14;3.33;;;1.73;;
4642;SDS011;2334;48.710;9.622;2023-02-19T03:21:09;3.43;;;2.37;;
4642;SDS011;2334;48.710;9.622;2023-02-19T03:24:32;2.27;;;1.90;;
4642;SDS011;2334;48.710;9.622;2023-02-19T03:27:25;2.47;;;2.33;;
4642;SDS011;2334;48.710;9.622;2023-02-19T03:30:27;2.57;;;2.17;;
4642;SDS011;2334;48.710;9.622;2023-02-19T03:36:20;1.83;;;1.73;;
4642;SDS011;2334;48.710;9.622;2023-02-19T03:39:09;1.80;;;1.70;;
4642;SDS011;2334;48.710;9.622;2023-02-19T03:42:19;1.80;;;1.70;;
4642;SDS011;2334;48.710;9.622;2023-02-19T03:45:40;2.17;;;2.00;;
4642;SDS011;2334;48.710;9.622;2023-02-19T03:48:49;2.17;;;1.97;;
4642;SDS011;2334;48.710;9.622;2023-02-19T03:58:13;1.63;;;1.53;;
4642;SDS011;2334;48.710;9.622;2023-02-19T04:01:18;2.20;;;2.00;;
4642;SDS011;2334;48.710;9.622;2023-02-19T04:04:03;2.60;;;1.77;;
4642;SDS011;2334;48.710;9.622;2023-02-19T04:09:56;3.33;;;1.90;;
4642;SDS011;2334;48.710;9.622;2023-02-19T04:12:50;1.70;;;1.60;;
4642;SDS011;2334;48.710;9.622;2023-02-19T04:16:12;2.20;;;2.00;;
4642;SDS011;2334;48.710;9.622;2023-02-19T04:18:49;2.10;;;1.90;;
4642;SDS011;2334;48.710;9.622;2023-02-19T04:21:54;2.60;;;2.07;;
4642;SDS011;2334;48.710;9.622;2023-02-19T04:24:59;2.50;;;2.27;;
4642;SDS011;2334;48.710;9.622;2023-02-19T04:27:50;2.90;;;2.60;;
4642;SDS011;2334;48.710;9.622;2023-02-19T04:30:38;2.43;;;2.30;;
4642;SDS011;2334;48.710;9.622;2023-02-19T04:33:35;5.20;;;2.73;;
4642;SDS011;2334;48.710;9.622;2023-02-19T04:36:49;3.90;;;2.67;;
4642;SDS011;2334;48.710;9.622;2023-02-19T04:42:34;3.50;;;2.13;;
4642;SDS011;2334;48.710;9.622;2023-02-19T04:45:23;2.87;;;2.57;;
4642;SDS011;2334;48.710;9.622;2023-02-19T04:48:47;2.90;;;2.47;;
4642;SDS011;2334;48.710;9.622;2023-02-19T04:51:36;3.93;;;1.90;;
4642;SDS011;2334;48.710;9.622;2023-02-19T04:54:48;2.03;;;1.80;;
4642;SDS011;2334;48.710;9.622;2023-02-19T04:57:43;2.03;;;1.83;;
4642;SDS011;2334;48.710;9.622;2023-02-19T05:00:15;1.70;;;1.60;;
4642;SDS011;2334;48.710;9.622;2023-02-19T05:03:00;3.40;;;2.20;;
4642;SDS011;2334;48.710;9.622;2023-02-19T05:05:51;2.20;;;2.00;;
4642;SDS011;2334;48.710;9.622;2023-02-19T05:08:33;3.90;;;1.40;;
4642;SDS011;2334;48.710;9.622;2023-02-19T05:11:41;1.80;;;1.70;;
4642;SDS011;2334;48.710;9.622;2023-02-19T05:21:44;9.40;;;3.40;;
4642;SDS011;2334;48.710;9.622;2023-02-19T05:24:39;2.60;;;2.30;;
4642;SDS011;2334;48.710;9.622;2023-02-19T05:27:40;1.87;;;1.77;;
4642;SDS011;2334;48.710;9.622;2023-02-19T05:30:53;2.47;;;1.90;;
4642;SDS011;2334;48.710;9.622;2023-02-19T05:34:07;6.97;;;2.17;;
4642;SDS011;2334;48.710;9.622;2023-02-19T05:37:02;1.70;;;1.60;;
4642;SDS011;2334;48.710;9.622;2023-02-19T05:40:28;1.50;;;1.40;;
4642;SDS011;2334;48.710;9.622;2023-02-19T05:42:51;2.37;;;2.17;;
4642;SDS011;2334;48.710;9.622;2023-02-19T05:49:26;4.33;;;1.20;;
4642;SDS011;2334;48.710;9.622;2023-02-19T05:55:39;1.10;;;1.00;;
4642;SDS011;2334;48.710;9.622;2023-02-19T05:58:50;3.00;;;1.37;;
4642;SDS011;2334;48.710;9.622;2023-02-19T06:01:53;0.80;;;0.80;;
4642;SDS011;2334;48.710;9.622;2023-02-19T06:04:55;0.57;;;0.57;;
4642;SDS011;2334;48.710;9.622;2023-02-19T06:07:57;0.60;;;0.60;;
4642;SDS011;2334;48.710;9.622;2023-02-19T06:10:44;1.33;;;0.57;;
4642;SDS011;2334;48.710;9.622;2023-02-19T06:13:23;0.73;;;0.60;;
4642;SDS011;2334;48.710;9.622;2023-02-19T06:15:54;0.40;;;0.40;;
4642;SDS011;2334;48.710;9.622;2023-02-19T06:18:53;0.60;;;0.60;;
4642;SDS011;2334;48.710;9.622;2023-02-19T06:21:43;0.50;;;0.50;;
4642;SDS011;2334;48.710;9.622;2023-02-19T06:24:48;2.00;;;1.27;;
4642;SDS011;2334;48.710;9.622;2023-02-19T06:27:37;1.10;;;0.87;;
4642;SDS011;2334;48.710;9.622;2023-02-19T06:30:44;0.60;;;0.60;;
4642;SDS011;2334;48.710;9.622;2023-02-19T06:33:30;0.50;;;0.50;;
4642;SDS011;2334;48.710;9.622;2023-02-19T06:39:11;1.20;;;1.20;;
4642;SDS011;2334;48.710;9.622;2023-02-19T06:42:15;0.80;;;0.80;;
4642;SDS011;2334;48.710;9.622;2023-02-19T06:45:11;0.50;;;0.50;;
4642;SDS011;2334;48.710;9.622;2023-02-19T06:48:41;0.40;;;0.40;;
4642;SDS011;2334;48.710;9.622;2023-02-19T06:52:18;0.60;;;0.60;;
4642;SDS011;2334;48.710;9.622;2023-02-19T06:59:09;1.03;;;1.00;;
4642;SDS011;2334;48.710;9.622;2023-02-19T07:01:54;0.60;;;0.60;;
4642;SDS011;2334;48.710;9.622;2023-02-19T07:04:50;0.50;;;0.50;;
4642;SDS011;2334;48.710;9.622;2023-02-19T07:07:40;0.60;;;0.60;;
4642;SDS011;2334;48.710;9.622;2023-02-19T07:10:42;0.40;;;0.40;;
4642;SDS011;2334;48.710;9.622;2023-02-19T07:13:09;0.97;;;0.67;;
4642;SDS011;2334;48.710;9.622;2023-02-19T07:15:36;0.90;;;0.90;;
4642;SDS011;2334;48.710;9.622;2023-02-19T07:18:04;0.70;;;0.70;;
4642;SDS011;2334;48.710;9.622;2023-02-19T07:20:34;0.70;;;0.70;;
4642;SDS011;2334;48.710;9.622;2023-02-19T07:23:01;1.53;;;1.43;;
4642;SDS011;2334;48.710;9.622;2023-02-19T07:25:28;0.70;;;0.70;;
4642;SDS011;2334;48.710;9.622;2023-02-19T07:27:55;0.40;;;0.40;;
4642;SDS011;2334;48.710;9.622;2023-02-19T07:30:22;0.50;;;0.50;;
4642;SDS011;2334;48.710;9.622;2023-02-19T07:32:49;0.70;;;0.70;;
4642;SDS011;2334;48.710;9.622;2023-02-19T07:35:17;0.50;;;0.50;;
4642;SDS011;2334;48.710;9.622;2023-02-19T07:37:44;0.53;;;0.53;;
4642;SDS011;2334;48.710;9.622;2023-02-19T07:40:11;4.00;;;1.60;;
4642;SDS011;2334;48.710;9.622;2023-02-19T07:42:38;12.23;;;1.90;;
4642;SDS011;2334;48.710;9.622;2023-02-19T07:45:05;0.60;;;0.60;;
4642;SDS011;2334;48.710;9.622;2023-02-19T07:47:32;0.67;;;0.67;;
4642;SDS011;2334;48.710;9.622;2023-02-19T07:49:59;0.50;;;0.50;;
4642;SDS011;2334;48.710;9.622;2023-02-19T07:52:27;1.13;;;0.50;;
4642;SDS011;2334;48.710;9.622;2023-02-19T07:54:54;0.50;;;0.50;;
4642;SDS011;2334;48.710;9.622;2023-02-19T07:57:21;0.60;;;0.60;;
4642;SDS011;2334;48.710;9.622;2023-02-19T07:59:48;0.60;;;0.60;;
4642;SDS011;2334;48.710;9.622;2023-02-19T08:02:15;0.60;;;0.60;;
4642;SDS011;2334;48.710;9.622;2023-02-19T08:05:00;0.60;;;0.60;;
4642;SDS011;2334;48.710;9.622;2023-02-19T08:07:31;0.70;;;0.70;;
4642;SDS011;2334;48.710;9.622;2023-02-19T08:09:58;0.93;;;0.70;;
4642;SDS011;2334;48.710;9.622;2023-02-19T08:12:43;1.33;;;0.40;;
4642;SDS011;2334;48.710;9.622;2023-02-19T08:15:27;0.83;;;0.80;;
4642;SDS011;2334;48.710;9.622;2023-02-19T08:17:54;2.00;;;0.60;;
4642;SDS011;2334;48.710;9.622;2023-02-19T08:20:21;0.50;;;0.50;;
4642;SDS011;2334;48.710;9.622;2023-02-19T08:22:49;0.50;;;0.50;;
4642;SDS011;2334;48.710;9.622;2023-02-19T08:25:16;0.60;;;0.60;;
4642;SDS011;2334;48.710;9.622;2023-02-19T08:27:43;0.70;;;0.70;;
4642;SDS011;2334;48.710;9.622;2023-02-19T08:30:10;0.50;;;0.40;;
4642;SDS011;2334;48.710;9.622;2023-02-19T08:32:37;1.53;;;0.67;;
4642;SDS011;2334;48.710;9.622;2023-02-19T08:35:04;1.60;;;0.63;;
4642;SDS011;2334;48.710;9.622;2023-02-19T08:37:31;3.20;;;0.70;;
4642;SDS011;2334;48.710;9.622;2023-02-19T08:39:59;0.83;;;0.60;;
4642;SDS011;2334;48.710;9.622;2023-02-19T08:42:26;0.70;;;0.70;;
4642;SDS011;2334;48.710;9.622;2023-02-19T08:44:53;0.87;;;0.87;;
4642;SDS011;2334;48.710;9.622;2023-02-19T08:47:21;0.67;;;0.67;;
4642;SDS011;2334;48.710;9.622;2023-02-19T08:49:48;0.80;;;0.63;;
4642;SDS011;2334;48.710;9.622;2023-02-19T08:52:14;0.97;;;0.97;;
4642;SDS011;2334;48.710;9.622;2023-02-19T08:54:41;0.60;;;0.60;;
4642;SDS011;2334;48.710;9.622;2023-02-19T08:57:10;4.43;;;1.10;;
4642;SDS011;2334;48.710;9.622;2023-02-19T08:59:36;0.73;;;0.73;;
4642;SDS011;2334;48.710;9.622;2023-02-19T09:02:03;1.70;;;0.97;;
4642;SDS011;2334;48.710;9.622;2023-02-19T09:04:30;0.97;;;0.90;;
4642;SDS011;2334;48.710;9.622;2023-02-19T09:06:57;3.67;;;0.80;;
4642;SDS011;2334;48.710;9.622;2023-02-19T09:09:24;4.77;;;0.90;;
4642;SDS011;2334;48.710;9.622;2023-02-19T09:11:51;1.17;;;1.07;;
4642;SDS011;2334;48.710;9.622;2023-02-19T09:14:19;1.33;;;1.00;;
4642;SDS011;2334;48.710;9.622;2023-02-19T09:16:46;1.37;;;1.27;;
4642;SDS011;2334;48.710;9.622;2023-02-19T09:19:13;4.27;;;2.43;;
4642;SDS011;2334;48.710;9.622;2023-02-19T09:21:41;1.37;;;1.23;;
4642;SDS011;2334;48.710;9.622;2023-02-19T09:24:08;11.67;;;8.80;;
4642;SDS011;2334;48.710;9.622;2023-02-19T09:26:35;1.33;;;1.23;;
4642;SDS011;2334;48.710;9.622;2023-02-19T09:29:02;1.30;;;1.20;;
4642;SDS011;2334;48.710;9.622;2023-02-19T09:31:30;1.27;;;1.20;;
4642;SDS011;2334;48.710;9.622;2023-02-19T09:33:59;6.87;;;4.37;;
4642;SDS011;2334;48.710;9.622;2023-02-19T09:36:26;31.90;;;14.43;;
4642;SDS011;2334;48.710;9.622;2023-02-19T09:38:53;9.63;;;3.40;;
4642;SDS011;2334;48.710;9.622;2023-02-19T09:41:21;26.70;;;9.77;;
4642;SDS011;2334;48.710;9.622;2023-02-19T09:43:54;6.90;;;4.17;;
4642;SDS011;2334;48.710;9.622;2023-02-19T09:46:23;4.23;;;1.70;;
4642;SDS011;2334;48.710;9.622;2023-02-19T09:48:58;10.43;;;4.30;;
4642;SDS011;2334;48.710;9.622;2023-02-19T09:51:30;1.27;;;1.20;;
4642;SDS011;2334;48.710;9.622;2023-02-19T09:53:59;25.30;;;11.20;;
4642;SDS011;2334;48.710;9.622;2023-02-19T09:56:26;5.80;;;3.07;;
4642;SDS011;2334;48.710;9.622;2023-02-19T09:58:55;13.10;;;5.73;;
4642;SDS011;2334;48.710;9.622;2023-02-19T10:01:25;9.17;;;5.17;;
4642;SDS011;2334;48.710;9.622;2023-02-19T10:03:55;14.33;;;6.90;;
4642;SDS011;2334;48.710;9.622;2023-02-19T10:06:27;17.70;;;6.67;;
4642;SDS011;2334;48.710;9.622;2023-02-19T10:08:55;14.13;;;4.60;;
4642;SDS011;2334;48.710;9.622;2023-02-19T10:11:39;35.67;;;11.57;;
4642;SDS011;2334;48.710;9.622;2023-02-19T10:14:09;33.30;;;11.70;;
4642;SDS011;2334;48.710;9.622;2023-02-19T10:16:42;8.40;;;2.87;;
4642;SDS011;2334;48.710;9.622;2023-02-19T10:19:11;5.70;;;2.97;;
4642;SDS011;2334;48.710;9.622;2023-02-19T10:21:40;0.80;;;0.80;;
4642;SDS011;2334;48.710;9.622;2023-02-19T10:24:09;3.67;;;1.30;;
4642;SDS011;2334;48.710;9.622;2023-02-19T10:26:44;2.77;;;1.60;;
4642;SDS011;2334;48.710;9.622;2023-02-19T10:29:11;0.97;;;0.90;;
4642;SDS011;2334;48.710;9.622;2023-02-19T10:31:37;22.90;;;7.50;;
4642;SDS011;2334;48.710;9.622;2023-02-19T10:34:04;12.97;;;6.63;;
4642;SDS011;2334;48.710;9.622;2023-02-19T10:36:44;2.77;;;2.57;;
4642;SDS011;2334;48.710;9.622;2023-02-19T10:39:23;2.60;;;1.30;;
4642;SDS011;2334;48.710;9.622;2023-02-19T10:42:08;4.77;;;2.00;;
4642;SDS011;2334;48.710;9.622;2023-02-19T10:44:44;3.17;;;1.40;;
4642;SDS011;2334;48.710;9.622;2023-02-19T10:47:14;0.80;;;0.77;;
4642;SDS011;2334;48.710;9.622;2023-02-19T10:49:44;4.50;;;1.17;;
4642;SDS011;2334;48.710;9.622;2023-02-19T10:52:15;2.90;;;0.90;;
4642;SDS011;2334;48.710;9.622;2023-02-19T10:54:48;0.63;;;0.63;;
4642;SDS011;2334;48.710;9.622;2023-02-19T10:57:26;0.80;;;0.80;;
4642;SDS011;2334;48.710;9.622;2023-02-19T10:59:57;0.70;;;0.70;;
4642;SDS011;2334;48.710;9.622;2023-02-19T11:02:26;8.37;;;0.90;;
4642;SDS011;2334;48.710;9.622;2023-02-19T11:05:01;3.00;;;1.00;;
4642;SDS011;2334;48.710;9.622;2023-02-19T11:07:43;2.10;;;0.60;;
4642;SDS011;2334;48.710;9.622;2023-02-19T11:10:19;0.97;;;0.60;;
4642;SDS011;2334;48.710;9.622;2023-02-19T11:12:50;0.77;;;0.70;;
4642;SDS011;2334;48.710;9.622;2023-02-19T11:15:20;2.37;;;0.83;;
4642;SDS011;2334;48.710;9.622;2023-02-19T11:17:55;1.10;;;0.80;;
4642;SDS011;2334;48.710;9.622;2023-02-19T11:20:24;2.63;;;1.17;;
4642;SDS011;2334;48.710;9.622;2023-02-19T11:22:54;1.40;;;0.67;;
4642;SDS011;2334;48.710;9.622;2023-02-19T11:25:24;1.90;;;0.90;;
4642;SDS011;2334;48.710;9.622;2023-02-19T11:27:59;0.83;;;0.50;;
4642;SDS011;2334;48.710;9.622;2023-02-19T11:30:35;2.43;;;0.83;;
4642;SDS011;2334;48.710;9.622;2023-02-19T11:36:10;0.70;;;0.70;;
4642;SDS011;2334;48.710;9.622;2023-02-19T11:39:04;1.57;;;0.70;;
4642;SDS011;2334;48.710;9.622;2023-02-19T11:48:05;1.00;;;0.90;;
4642;SDS011;2334;48.710;9.622;2023-02-19T11:50:45;1.20;;;0.90;;
4642;SDS011;2334;48.710;9.622;2023-02-19T11:53:20;2.40;;;0.93;;
4642;SDS011;2334;48.710;9.622;2023-02-19T11:56:04;2.23;;;0.80;;
4642;SDS011;2334;48.710;9.622;2023-02-19T11:58:50;1.37;;;1.27;;
4642;SDS011;2334;48.710;9.622;2023-02-19T12:01:26;2.43;;;0.90;;
4642;SDS011;2334;48.710;9.622;2023-02-19T12:04:19;0.70;;;0.70;;
4642;SDS011;2334;48.710;9.622;2023-02-19T12:07:01;2.03;;;0.73;;
4642;SDS011;2334;48.710;9.622;2023-02-19T12:09:42;0.50;;;0.50;;
4642;SDS011;2334;48.710;9.622;2023-02-19T12:12:21;3.33;;;1.00;;
4642;SDS011;2334;48.710;9.622;2023-02-19T12:15:08;4.07;;;0.97;;
4642;SDS011;2334;48.710;9.622;2023-02-19T12:17:48;1.00;;;1.00;;
4642;SDS011;2334;48.710;9.622;2023-02-19T12:20:38;1.17;;;0.80;;
4642;SDS011;2334;48.710;9.622;2023-02-19T12:23:28;1.00;;;0.90;;
4642;SDS011;2334;48.710;9.622;2023-02-19T12:26:04;3.27;;;0.87;;
4642;SDS011;2334;48.710;9.622;2023-02-19T12:29:00;0.90;;;0.90;;
4642;SDS011;2334;48.710;9.622;2023-02-19T12:34:43;3.63;;;2.40;;
4642;SDS011;2334;48.710;9.622;2023-02-19T12:37:24;2.50;;;0.97;;
4642;SDS011;2334;48.710;9.622;2023-02-19T12:40:13;3.30;;;1.27;;
4642;SDS011;2334;48.710;9.622;2023-02-19T12:42:51;2.73;;;1.70;;
4642;SDS011;2334;48.710;9.622;2023-02-19T12:45:30;4.37;;;1.37;;
4642;SDS011;2334;48.710;9.622;2023-02-19T12:48:04;3.10;;;1.23;;
4642;SDS011;2334;48.710;9.622;2023-02-19T12:50:38;2.93;;;1.63;;
4642;SDS011;2334;48.710;9.622;2023-02-19T12:53:08;1.47;;;0.70;;
4642;SDS011;2334;48.710;9.622;2023-02-19T12:55:40;1.60;;;0.90;;
4642;SDS011;2334;48.710;9.622;2023-02-19T12:58:10;1.63;;;0.83;;
4642;SDS011;2334;48.710;9.622;2023-02-19T13:00:53;1.23;;;0.63;;
4642;SDS011;2334;48.710;9.622;2023-02-19T13:03:25;0.70;;;0.70;;
4642;SDS011;2334;48.710;9.622;2023-02-19T13:05:56;1.33;;;1.00;;
4642;SDS011;2334;48.710;9.622;2023-02-19T13:08:29;1.00;;;0.90;;
4642;SDS011;2334;48.710;9.622;2023-02-19T13:11:02;1.63;;;0.97;;
4642;SDS011;2334;48.710;9.622;2023-02-19T13:13:34;0.63;;;0.60;;
4642;SDS011;2334;48.710;9.622;2023-02-19T13:16:08;2.43;;;1.00;;
4642;SDS011;2334;48.710;9.622;2023-02-19T13:18:40;3.60;;;0.83;;
4642;SDS011;2334;48.710;9.622;2023-02-19T13:21:09;1.93;;;0.90;;
4642;SDS011;2334;48.710;9.622;2023-02-19T13:23:57;1.17;;;0.87;;
4642;SDS011;2334;48.710;9.622;2023-02-19T13:26:35;1.80;;;0.70;;
4642;SDS011;2334;48.710;9.622;2023-02-19T13:29:13;0.60;;;0.60;;
4642;SDS011;2334;48.710;9.622;2023-02-19T13:34:53;2.37;;;1.80;;
4642;SDS011;2334;48.710;9.622;2023-02-19T13:37:34;4.60;;;1.07;;
4642;SDS011;2334;48.710;9.622;2023-02-19T13:40:04;0.60;;;0.60;;
4642;SDS011;2334;48.710;9.622;2023-02-19T13:42:46;1.20;;;0.70;;
4642;SDS011;2334;48.710;9.622;2023-02-19T13:45:20;5.10;;;1.07;;
4642;SDS011;2334;48.710;9.622;2023-02-19T13:47:58;2.20;;;0.70;;
4642;SDS011;2334;48.710;9.622;2023-02-19T13:50:27;4.00;;;0.70;;
4642;SDS011;2334;48.710;9.622;2023-02-19T13:52:56;9.47;;;1.00;;
4642;SDS011;2334;48.710;9.622;2023-02-19T13:58:36;2.97;;;0.80;;
4642;SDS011;2334;48.710;9.622;2023-02-19T14:01:17;1.93;;;0.67;;
4642;SDS011;2334;48.710;9.622;2023-02-19T14:03:48;1.20;;;0.70;;
4642;SDS011;2334;48.710;9.622;2023-02-19T14:06:19;0.63;;;0.63;;
4642;SDS011;2334;48.710;9.622;2023-02-19T14:08:48;0.97;;;0.87;;
4642;SDS011;2334;48.710;9.622;2023-02-19T14:14:33;1.10;;;0.90;;
4642;SDS011;2334;48.710;9.622;2023-02-19T14:19:55;1.33;;;1.03;;
4642;SDS011;2334;48.710;9.622;2023-02-19T14:25:40;4.93;;;1.43;;
4642;SDS011;2334;48.710;9.622;2023-02-19T14:28:16;1.47;;;1.13;;
4642;SDS011;2334;48.710;9.622;2023-02-19T14:30:50;4.47;;;1.20;;
4642;SDS011;2334;48.710;9.622;2023-02-19T14:33:21;1.47;;;1.00;;
4642;SDS011;2334;48.710;9.622;2023-02-19T14:35:51;3.77;;;1.43;;
4642;SDS011;2334;48.710;9.622;2023-02-19T14:38:21;1.87;;;0.83;;
4642;SDS011;2334;48.710;9.622;2023-02-19T14:40:51;2.60;;;0.70;;
4642;SDS011;2334;48.710;9.622;2023-02-19T14:43:20;3.03;;;0.97;;
4642;SDS011;2334;48.710;9.622;2023-02-19T14:45:50;0.70;;;0.70;;
4642;SDS011;2334;48.710;9.622;2023-02-19T14:48:20;0.60;;;0.60;;
4642;SDS011;2334;48.710;9.622;2023-02-19T14:50:53;1.93;;;0.93;;
4642;SDS011;2334;48.710;9.622;2023-02-19T14:53:26;1.47;;;0.87;;
4642;SDS011;2334;48.710;9.622;2023-02-19T14:55:54;1.30;;;1.07;;
4642;SDS011;2334;48.710;9.622;2023-02-19T14:58:25;1.07;;;1.07;;
4642;SDS011;2334;48.710;9.622;2023-02-19T15:00:55;8.13;;;1.23;;
4642;SDS011;2334;48.710;9.622;2023-02-19T15:03:26;1.50;;;1.23;;
4642;SDS011;2334;48.710;9.622;2023-02-19T15:06:00;1.30;;;0.97;;
4642;SDS011;2334;48.710;9.622;2023-02-19T15:08:32;2.63;;;2.10;;
4642;SDS011;2334;48.710;9.622;2023-02-19T15:11:03;6.00;;;2.30;;
4642;SDS011;2334;48.710;9.622;2023-02-19T15:13:34;2.90;;;2.67;;
4642;SDS011;2334;48.710;9.622;2023-02-19T15:16:02;5.67;;;2.10;;
4642;SDS011;2334;48.710;9.622;2023-02-19T15:18:29;1.50;;;1.40;;
4642;SDS011;2334;48.710;9.622;2023-02-19T15:21:02;1.80;;;1.50;;
4642;SDS011;2334;48.710;9.622;2023-02-19T15:23:30;5.10;;;2.30;;
4642;SDS011;2334;48.710;9.622;2023-02-19T15:25:59;10.50;;;3.07;;
4642;SDS011;2334;48.710;9.622;2023-02-19T15:28:28;7.90;;;3.10;;
4642;SDS011;2334;48.710;9.622;2023-02-19T15:31:05;5.60;;;1.67;;
4642;SDS011;2334;48.710;9.622;2023-02-19T15:33:36;3.23;;;1.60;;
4642;SDS011;2334;48.710;9.622;2023-02-19T15:36:06;6.57;;;1.80;;
4642;SDS011;2334;48.710;9.622;2023-02-19T15:38:34;6.97;;;4.63;;
4642;SDS011;2334;48.710;9.622;2023-02-19T15:41:02;12.97;;;7.40;;
4642;SDS011;2334;48.710;9.622;2023-02-19T15:43:30;12.37;;;5.50;;
4642;SDS011;2334;48.710;9.622;2023-02-19T15:46:03;6.63;;;3.83;;
4642;SDS011;2334;48.710;9.622;2023-02-19T15:48:35;7.90;;;4.50;;
4642;SDS011;2334;48.710;9.622;2023-02-19T15:51:09;4.67;;;2.97;;
4642;SDS011;2334;48.710;9.622;2023-02-19T15:53:41;4.43;;;2.43;;
4642;SDS011;2334;48.710;9.622;2023-02-19T15:56:14;4.37;;;2.67;;
4642;SDS011;2334;48.710;9.622;2023-02-19T15:58:45;1.70;;;1.47;;
4642;SDS011;2334;48.710;9.622;2023-02-19T16:01:17;7.70;;;3.37;;
4642;SDS011;2334;48.710;9.622;2023-02-19T16:03:46;3.47;;;2.20;;
4642;SDS011;2334;48.710;9.622;2023-02-19T16:06:15;7.17;;;4.77;;
4642;SDS011;2334;48.710;9.622;2023-02-19T16:08:45;12.17;;;1.97;;
4642;SDS011;2334;48.710;9.622;2023-02-19T16:11:27;3.77;;;2.30;;
4642;SDS011;2334;48.710;9.622;2023-02-19T16:14:14;4.03;;;3.00;;
4642;SDS011;2334;48.710;9.622;2023-02-19T16:16:43;6.37;;;3.00;;
4642;SDS011;2334;48.710;9.622;2023-02-19T16:19:18;2.17;;;1.37;;
4642;SDS011;2334;48.710;9.622;2023-02-19T16:21:48;1.50;;;1.47;;
4642;SDS011;2334;48.710;9.622;2023-02-19T16:24:15;1.50;;;1.40;;
4642;SDS011;2334;48.710;9.622;2023-02-19T16:26:49;1.87;;;1.60;;
4642;SDS011;2334;48.710;9.622;2023-02-19T16:29:18;0.97;;;0.97;;
4642;SDS011;2334;48.710;9.622;2023-02-19T16:31:47;3.53;;;1.63;;
4642;SDS011;2334;48.710;9.622;2023-02-19T16:34:25;2.63;;;2.40;;
4642;SDS011;2334;48.710;9.622;2023-02-19T16:37:00;6.23;;;1.57;;
4642;SDS011;2334;48.710;9.622;2023-02-19T16:39:28;3.13;;;1.50;;
4642;SDS011;2334;48.710;9.622;2023-02-19T16:44:42;5.93;;;1.67;;
4642;SDS011;2334;48.710;9.622;2023-02-19T16:50:03;3.47;;;1.40;;
4642;SDS011;2334;48.710;9.622;2023-02-19T16:52:50;4.40;;;2.30;;
4642;SDS011;2334;48.710;9.622;2023-02-19T16:55:17;3.27;;;1.83;;
4642;SDS011;2334;48.710;9.622;2023-02-19T16:57:44;9.17;;;2.40;;
4642;SDS011;2334;48.710;9.622;2023-02-19T17:00:14;1.60;;;1.50;;
4642;SDS011;2334;48.710;9.622;2023-02-19T17:02:44;6.17;;;2.80;;
4642;SDS011;2334;48.710;9.622;2023-02-19T17:05:11;2.60;;;2.40;;
4642;SDS011;2334;48.710;9.622;2023-02-19T17:07:38;3.83;;;2.10;;
4642;SDS011;2334;48.710;9.622;2023-02-19T17:10:08;3.50;;;1.97;;
4642;SDS011;2334;48.710;9.622;2023-02-19T17:12:35;6.10;;;3.20;;
4642;SDS011;2334;48.710;9.622;2023-02-19T17:15:02;2.97;;;2.00;;
4642;SDS011;2334;48.710;9.622;2023-02-19T17:17:30;2.80;;;1.47;;
4642;SDS011;2334;48.710;9.622;2023-02-19T17:19:57;2.30;;;1.40;;
4642;SDS011;2334;48.710;9.622;2023-02-19T17:22:24;2.13;;;1.00;;
4642;SDS011;2334;48.710;9.622;2023-02-19T17:24:50;3.53;;;1.70;;